createdAt,value
2022-10-20T00:01:28.982Z,98.53
2022-10-20T00:03:57.756Z,98.60
2022-10-20T00:06:33.736Z,98.55
2022-10-20T00:09:03.310Z,98.58
2022-10-20T00:11:32.204Z,98.40
2022-10-20T00:14:02.156Z,98.40
2022-10-20T00:16:32.541Z,98.30
2022-10-20T00:19:00.428Z,98.33
2022-10-20T00:21:29.523Z,98.29
2022-10-20T00:24:00.368Z,98.19
2022-10-20T00:26:29.574Z,98.26
2022-10-20T00:28:58.055Z,98.28
2022-10-20T00:31:26.748Z,98.25
2022-10-20T00:33:54.868Z,98.22
2022-10-20T00:36:24.181Z,97.96
2022-10-20T00:38:52.924Z,98.01
2022-10-20T00:41:22.287Z,98.02
2022-10-20T00:43:58.901Z,97.95
2022-10-20T00:46:34.915Z,97.99
2022-10-20T00:49:07.516Z,97.84
2022-10-20T00:51:36.016Z,97.80
2022-10-20T00:54:14.892Z,97.81
2022-10-20T00:56:45.251Z,97.81
2022-10-20T00:59:17.498Z,97.61
2022-10-20T01:01:46.268Z,97.63
2022-10-20T01:04:14.105Z,97.61
2022-10-20T01:06:41.740Z,97.75
2022-10-20T01:09:10.000Z,97.63
2022-10-20T01:12:01.670Z,97.70
2022-10-20T01:14:48.344Z,97.74
2022-10-20T01:17:32.758Z,97.71
2022-10-20T01:20:22.160Z,97.60
2022-10-20T01:23:14.266Z,97.53
2022-10-20T01:26:09.095Z,97.45
2022-10-20T01:28:56.805Z,97.62
2022-10-20T01:31:46.202Z,97.51
2022-10-20T01:34:28.837Z,97.53
2022-10-20T01:37:07.818Z,97.59
2022-10-20T01:39:43.947Z,97.60
2022-10-20T01:42:25.493Z,97.51
2022-10-20T01:44:57.997Z,97.37
2022-10-20T01:47:28.120Z,97.36
2022-10-20T01:49:58.150Z,97.35
2022-10-20T01:52:28.467Z,97.28
2022-10-20T01:54:56.126Z,97.26
2022-10-20T01:57:35.720Z,97.15
2022-10-20T02:00:06.525Z,97.17
2022-10-20T02:03:15.610Z,97.25
2022-10-20T02:06:19.970Z,97.32
2022-10-20T02:08:52.028Z,97.32
2022-10-20T02:11:32.053Z,97.25
2022-10-20T02:14:00.877Z,97.17
2022-10-20T02:16:35.545Z,97.12
2022-10-20T02:19:04.995Z,97.20
2022-10-20T02:21:32.731Z,97.21
2022-10-20T02:24:04.929Z,97.20
2022-10-20T02:26:35.107Z,97.33
2022-10-20T02:29:11.644Z,97.26
2022-10-20T02:31:39.378Z,97.35
2022-10-20T02:34:07.379Z,97.22
2022-10-20T02:36:40.688Z,97.24
2022-10-20T02:39:09.083Z,97.12
2022-10-20T02:41:36.775Z,97.20
2022-10-20T02:44:05.078Z,97.26
2022-10-20T02:46:32.717Z,97.25
2022-10-20T02:49:00.390Z,97.09
2022-10-20T02:51:28.062Z,97.12
2022-10-20T02:53:55.989Z,97.17
2022-10-20T02:56:25.432Z,97.11
2022-10-20T02:58:55.379Z,97.04
2022-10-20T03:01:23.614Z,97.02
2022-10-20T03:03:51.296Z,96.93
2022-10-20T03:06:18.984Z,96.99
2022-10-20T03:08:46.725Z,96.98
2022-10-20T03:11:14.413Z,96.90
2022-10-20T03:13:42.113Z,96.98
2022-10-20T03:16:09.813Z,96.95
2022-10-20T03:18:37.419Z,96.98
2022-10-20T03:21:05.043Z,96.98
2022-10-20T03:23:32.694Z,96.99
2022-10-20T03:26:08.399Z,97.06
2022-10-20T03:28:36.088Z,97.15
2022-10-20T03:31:03.762Z,97.04
2022-10-20T03:33:31.510Z,97.24
2022-10-20T03:35:59.125Z,97.31
2022-10-20T03:38:26.778Z,97.62
2022-10-20T03:40:54.544Z,97.67
2022-10-20T03:43:22.175Z,97.82
2022-10-20T03:45:49.797Z,97.69
2022-10-20T03:48:17.879Z,97.63
2022-10-20T03:50:45.513Z,97.73
2022-10-20T03:53:14.193Z,97.64
2022-10-20T03:55:41.812Z,97.65
2022-10-20T03:58:09.434Z,97.70
2022-10-20T04:00:37.036Z,97.75
2022-10-20T04:03:04.901Z,97.75
2022-10-20T04:05:32.517Z,97.69
2022-10-20T04:08:00.128Z,97.66
2022-10-20T04:10:27.739Z,97.70
2022-10-20T04:13:02.205Z,97.59
2022-10-20T04:15:29.916Z,97.64
2022-10-20T04:17:57.596Z,97.61
2022-10-20T04:20:25.566Z,97.52
2022-10-20T04:22:53.225Z,97.66
2022-10-20T04:25:21.203Z,97.75
2022-10-20T04:27:48.874Z,97.67
2022-10-20T04:30:16.592Z,97.64
2022-10-20T04:32:44.235Z,97.70
2022-10-20T04:35:11.840Z,97.64
2022-10-20T04:37:39.853Z,97.60
2022-10-20T04:40:08.195Z,97.64
2022-10-20T04:42:35.891Z,97.63
2022-10-20T04:45:03.608Z,97.70
2022-10-20T04:47:35.575Z,97.67
2022-10-20T04:50:03.349Z,97.75
2022-10-20T04:52:31.150Z,97.80
2022-10-20T04:54:58.819Z,97.85
2022-10-20T04:57:26.566Z,97.83
2022-10-20T04:59:54.210Z,97.93
2022-10-20T05:02:21.880Z,97.97
2022-10-20T05:04:49.488Z,98.05
2022-10-20T05:07:17.849Z,98.12
2022-10-20T05:09:45.438Z,98.05
2022-10-20T05:12:15.984Z,98.09
2022-10-20T05:14:43.617Z,98.08
2022-10-20T05:17:11.216Z,98.06
2022-10-20T05:19:38.879Z,98.05
2022-10-20T05:22:06.460Z,97.92
2022-10-20T05:24:34.193Z,97.97
2022-10-20T05:27:01.875Z,97.98
2022-10-20T05:29:29.735Z,98.00
2022-10-20T05:31:57.497Z,98.00
2022-10-20T05:34:25.340Z,97.85
2022-10-20T05:36:55.129Z,97.72
2022-10-20T05:39:22.829Z,97.70
2022-10-20T05:41:50.502Z,97.57
2022-10-20T05:44:18.105Z,97.37
2022-10-20T05:46:45.741Z,97.20
2022-10-20T05:49:18.667Z,97.10
2022-10-20T05:51:47.948Z,96.89
2022-10-20T05:54:16.353Z,96.77
2022-10-20T05:56:44.713Z,96.60
2022-10-20T05:59:13.124Z,96.40
2022-10-20T06:01:49.193Z,96.37
2022-10-20T06:04:19.400Z,96.49
2022-10-20T06:06:48.362Z,96.21
2022-10-20T06:09:16.107Z,96.13
2022-10-20T06:11:43.742Z,95.68
2022-10-20T06:14:12.116Z,93.98
2022-10-20T06:16:40.150Z,91.92
2022-10-20T06:21:37.451Z,90.62
2022-10-20T06:24:06.710Z,90.59
2022-10-20T06:26:39.552Z,90.34
2022-10-20T06:29:10.811Z,90.00
2022-10-20T06:31:41.417Z,89.82
2022-10-20T06:34:13.821Z,89.77
2022-10-20T06:36:43.228Z,89.78
2022-10-20T06:39:15.447Z,89.51
2022-10-20T06:41:43.902Z,89.87
2022-10-20T06:44:11.522Z,89.80
2022-10-20T06:46:39.679Z,89.84
2022-10-20T06:49:09.134Z,89.85
2022-10-20T06:51:37.213Z,89.95
2022-10-20T06:54:05.456Z,90.08
2022-10-20T06:56:35.373Z,90.06
2022-10-20T06:59:03.843Z,90.17
2022-10-20T07:01:34.515Z,90.11
2022-10-20T07:04:06.090Z,90.32
2022-10-20T07:06:42.549Z,90.41
2022-10-20T07:09:15.052Z,90.50
2022-10-20T07:11:43.403Z,90.55
2022-10-20T07:14:13.979Z,90.70
2022-10-20T07:16:42.102Z,90.74
2022-10-20T07:19:09.835Z,90.91
2022-10-20T07:21:40.187Z,90.93
2022-10-20T07:24:10.503Z,90.94
2022-10-20T07:26:40.338Z,91.13
2022-10-20T07:29:08.287Z,91.05
2022-10-20T07:31:47.800Z,91.09
2022-10-20T07:34:27.463Z,91.30
2022-10-20T07:36:56.834Z,91.08
2022-10-20T07:39:24.997Z,91.22
2022-10-20T07:41:52.678Z,91.29
2022-10-20T07:44:20.777Z,91.18
2022-10-20T07:46:48.474Z,91.23
2022-10-20T07:52:03.815Z,91.33
2022-10-20T07:54:31.825Z,91.39
2022-10-20T07:56:59.469Z,91.41
2022-10-20T07:59:27.139Z,91.34
2022-10-20T08:01:56.299Z,91.35
2022-10-20T08:04:26.674Z,91.27
2022-10-20T08:06:54.339Z,91.24
2022-10-20T08:09:21.962Z,91.31
2022-10-20T08:11:52.816Z,91.30
2022-10-20T08:14:23.151Z,91.37
2022-10-20T08:16:52.612Z,91.27
2022-10-20T08:19:39.812Z,91.33
2022-10-20T08:22:07.486Z,91.37
2022-10-20T08:24:35.230Z,91.34
2022-10-20T08:27:03.411Z,91.35
2022-10-20T08:29:31.310Z,91.19
2022-10-20T08:31:58.953Z,91.11
2022-10-20T08:34:26.887Z,91.11
2022-10-20T08:36:54.497Z,90.88
2022-10-20T08:42:07.452Z,90.64
2022-10-20T08:44:37.606Z,90.75
2022-10-20T08:47:15.336Z,90.59
2022-10-20T08:49:45.778Z,90.15
2022-10-20T08:52:16.455Z,90.20
2022-10-20T08:54:44.533Z,89.67
2022-10-20T08:57:28.728Z,89.81
2022-10-20T09:00:20.101Z,89.32
2022-10-20T09:02:50.172Z,89.46
2022-10-20T09:05:22.414Z,89.16
2022-10-20T09:07:51.149Z,89.48
2022-10-20T09:10:42.795Z,89.46
2022-10-20T09:13:24.677Z,88.83
2022-10-20T09:16:04.901Z,89.07
2022-10-20T09:18:34.164Z,88.96
2022-10-20T09:21:06.644Z,88.75
2022-10-20T09:23:46.738Z,88.67
2022-10-20T09:26:30.903Z,88.82
2022-10-20T09:29:14.634Z,89.03
2022-10-20T09:31:55.475Z,88.92
2022-10-20T09:34:30.322Z,88.84
2022-10-20T09:37:04.510Z,89.43
2022-10-20T09:39:56.036Z,89.21
2022-10-20T09:42:30.170Z,88.93
2022-10-20T09:45:13.067Z,88.87
2022-10-20T09:47:45.097Z,88.88
2022-10-20T09:50:27.941Z,88.45
2022-10-20T09:52:56.607Z,87.70
2022-10-20T09:55:32.927Z,87.01
2022-10-20T09:58:04.784Z,87.39
2022-10-20T10:00:38.353Z,87.00
2022-10-20T10:03:22.628Z,87.47
2022-10-20T10:05:52.963Z,87.58
2022-10-20T10:08:22.879Z,87.63
2022-10-20T10:11:05.922Z,87.60
2022-10-20T10:13:41.985Z,87.29
2022-10-20T10:16:12.909Z,86.65
2022-10-20T10:18:43.316Z,86.72
2022-10-20T10:21:18.334Z,86.62
2022-10-20T10:24:01.557Z,86.15
2022-10-20T10:26:49.003Z,85.90
2022-10-20T10:29:25.887Z,84.90
2022-10-20T10:31:57.830Z,84.77
2022-10-20T10:34:39.970Z,83.70
2022-10-20T10:37:10.355Z,83.85
2022-10-20T10:39:38.086Z,84.14
2022-10-20T10:42:27.017Z,82.70
2022-10-20T10:45:12.933Z,82.44
2022-10-20T10:47:46.811Z,81.96
2022-10-20T10:50:40.552Z,80.95
2022-10-20T10:53:11.100Z,80.82
2022-10-20T10:56:03.742Z,80.97
2022-10-20T10:58:58.132Z,80.59
2022-10-20T11:01:34.394Z,80.76
2022-10-20T11:04:01.969Z,80.60
2022-10-20T11:06:35.207Z,81.01
2022-10-20T11:09:24.559Z,80.58
2022-10-20T11:12:07.125Z,81.14
2022-10-20T11:15:33.228Z,80.81
2022-10-20T11:18:25.310Z,80.54
2022-10-20T11:21:34.086Z,80.52
2022-10-20T11:24:15.412Z,81.16
2022-10-20T11:26:47.007Z,81.34
2022-10-20T11:29:21.732Z,81.31
2022-10-20T11:32:10.050Z,81.27
2022-10-20T11:34:44.485Z,81.35
2022-10-20T11:37:20.981Z,81.42
2022-10-20T11:40:04.546Z,81.66
2022-10-20T11:43:16.937Z,81.70
2022-10-20T11:45:56.946Z,81.75
2022-10-20T11:48:32.703Z,81.63
2022-10-20T11:51:30.616Z,81.46
2022-10-20T11:53:58.246Z,81.50
2022-10-20T11:56:51.522Z,81.53
2022-10-20T11:59:41.281Z,81.63
2022-10-20T12:02:24.136Z,81.78
2022-10-20T12:04:57.601Z,81.75
2022-10-20T12:07:43.876Z,81.99
2022-10-20T12:10:29.286Z,82.29
2022-10-20T12:13:07.698Z,82.35
2022-10-20T12:15:45.326Z,82.51
2022-10-20T12:18:25.598Z,82.69
2022-10-20T12:20:57.371Z,82.83
2022-10-20T12:23:46.711Z,83.00
2022-10-20T12:26:35.502Z,82.91
2022-10-20T12:29:31.637Z,82.94
2022-10-20T12:32:27.121Z,82.97
2022-10-20T12:34:57.660Z,83.17
2022-10-20T12:37:25.236Z,83.32
2022-10-20T12:39:54.775Z,83.35
2022-10-20T12:42:29.108Z,83.42
2022-10-20T12:45:09.754Z,83.52
2022-10-20T12:47:38.852Z,83.44
2022-10-20T12:50:30.892Z,83.47
2022-10-20T12:53:20.397Z,83.39
2022-10-20T12:55:58.175Z,83.43
2022-10-20T12:58:35.150Z,83.53
2022-10-20T13:01:06.986Z,83.40
2022-10-20T13:03:47.813Z,83.44
2022-10-20T13:06:24.507Z,83.49
2022-10-20T13:09:04.427Z,83.40
2022-10-20T13:11:38.750Z,83.20
2022-10-20T13:14:28.487Z,83.38
2022-10-20T13:17:22.779Z,83.44
2022-10-20T13:20:00.461Z,83.53
2022-10-20T13:22:41.856Z,83.78
2022-10-20T13:25:35.802Z,83.84
2022-10-20T13:28:15.835Z,83.97
2022-10-20T13:30:55.617Z,83.87
2022-10-20T13:34:02.475Z,84.16
2022-10-20T13:36:50.258Z,84.29
2022-10-20T13:39:38.058Z,84.30
2022-10-20T13:42:43.261Z,84.37
2022-10-20T13:45:46.589Z,84.49
2022-10-20T13:48:35.878Z,84.48
2022-10-20T13:51:07.903Z,84.63
2022-10-20T13:53:40.926Z,84.75
2022-10-20T13:56:09.682Z,84.85
2022-10-20T13:58:37.406Z,84.85
2022-10-20T14:01:07.219Z,84.91
2022-10-20T14:03:44.588Z,85.23
2022-10-20T14:06:30.250Z,85.51
2022-10-20T14:08:59.544Z,85.38
2022-10-20T14:11:31.764Z,85.58
2022-10-20T14:14:02.433Z,85.75
2022-10-20T14:16:32.839Z,85.75
2022-10-20T14:19:06.361Z,85.83
2022-10-20T14:21:50.476Z,85.86
2022-10-20T14:24:26.927Z,86.25
2022-10-20T14:26:55.921Z,86.16
2022-10-20T14:29:25.552Z,86.14
2022-10-20T14:31:53.593Z,86.03
2022-10-20T14:34:24.261Z,86.11
2022-10-20T14:36:54.049Z,86.21
2022-10-20T14:39:32.354Z,86.23
2022-10-20T14:42:01.822Z,86.19
2022-10-20T14:44:31.669Z,86.27
2022-10-20T14:47:06.385Z,86.27
2022-10-20T14:49:39.794Z,86.28
2022-10-20T14:52:21.713Z,86.31
2022-10-20T14:54:51.978Z,86.50
2022-10-20T14:57:20.139Z,86.57
2022-10-20T14:59:50.619Z,86.56
2022-10-20T15:02:27.470Z,86.66
2022-10-20T15:04:55.491Z,86.55
2022-10-20T15:07:36.035Z,86.45
2022-10-20T15:10:07.080Z,86.66
2022-10-20T15:12:43.675Z,86.49
2022-10-20T15:15:11.249Z,86.51
2022-10-20T15:17:42.259Z,86.53
2022-10-20T15:20:36.325Z,86.53
2022-10-20T15:23:09.942Z,86.65
2022-10-20T15:25:59.117Z,86.63
2022-10-20T15:28:39.913Z,86.60
2022-10-20T15:31:28.871Z,86.60
2022-10-20T15:33:58.033Z,86.67
2022-10-20T15:36:39.076Z,86.69
2022-10-20T15:39:09.803Z,86.71
2022-10-20T15:41:38.016Z,86.91
2022-10-20T15:44:16.248Z,86.97
2022-10-20T15:46:46.088Z,87.15
2022-10-20T15:49:14.703Z,87.14
2022-10-20T15:51:45.784Z,87.29
2022-10-20T15:54:19.081Z,87.43
2022-10-20T15:56:46.867Z,87.51
2022-10-20T15:59:14.886Z,87.55
2022-10-20T16:01:42.613Z,87.55
2022-10-20T16:04:23.455Z,87.66
2022-10-20T16:06:58.850Z,87.90
2022-10-20T16:09:26.977Z,87.85
2022-10-20T16:11:54.697Z,87.96
2022-10-20T16:14:22.285Z,87.98
2022-10-20T16:16:49.958Z,88.04
2022-10-20T16:19:17.625Z,88.19
2022-10-20T16:21:45.273Z,88.18
2022-10-20T16:24:12.992Z,88.13
2022-10-20T16:26:40.702Z,88.27
2022-10-20T16:29:08.334Z,88.22
2022-10-20T16:31:36.031Z,88.38
2022-10-20T16:34:03.692Z,89.21
2022-10-20T16:36:31.323Z,89.06
2022-10-20T16:38:59.051Z,89.35
2022-10-20T16:41:26.698Z,89.30
2022-10-20T16:43:57.488Z,89.35
2022-10-20T16:46:27.194Z,89.45
2022-10-20T16:48:58.232Z,89.52
2022-10-20T16:51:25.927Z,89.85
2022-10-20T16:53:57.354Z,90.07
2022-10-20T16:56:27.836Z,90.05
2022-10-20T16:58:55.459Z,90.00
2022-10-20T17:01:23.930Z,90.15
2022-10-20T17:03:53.742Z,90.33
2022-10-20T17:06:24.208Z,90.46
2022-10-20T17:08:52.710Z,90.61
2022-10-20T17:11:27.088Z,90.64
2022-10-20T17:13:55.357Z,90.73
2022-10-20T17:16:35.088Z,90.80
2022-10-20T17:19:04.144Z,91.11
2022-10-20T17:21:33.081Z,91.04
2022-10-20T17:24:01.750Z,91.10
2022-10-20T17:26:33.750Z,91.18
2022-10-20T17:29:02.903Z,91.37
2022-10-20T17:31:31.281Z,91.78
2022-10-20T17:34:00.431Z,91.76
2022-10-20T17:36:29.548Z,92.24
2022-10-20T17:39:03.795Z,92.20
2022-10-20T17:41:31.651Z,92.34
2022-10-20T17:44:03.166Z,92.29
2022-10-20T17:46:31.222Z,92.62
2022-10-20T17:48:58.888Z,92.51
2022-10-20T17:51:30.341Z,92.57
2022-10-20T17:54:01.327Z,93.05
2022-10-20T17:56:36.545Z,93.15
2022-10-20T17:59:06.713Z,93.86
2022-10-20T18:01:40.502Z,93.66
2022-10-20T18:04:13.833Z,94.45
2022-10-20T18:06:42.513Z,94.30
2022-10-20T18:09:13.107Z,95.24
2022-10-20T18:11:44.018Z,95.20
2022-10-20T18:14:11.742Z,95.43
2022-10-20T18:16:41.167Z,95.51
2022-10-20T18:19:10.156Z,95.63
2022-10-20T18:21:38.452Z,96.55
2022-10-20T18:24:08.933Z,97.80
2022-10-20T18:26:38.266Z,97.82
2022-10-20T18:29:07.966Z,97.64
2022-10-20T18:31:37.322Z,97.80
2022-10-20T18:34:12.146Z,97.63
2022-10-20T18:36:43.566Z,98.08
2022-10-20T18:39:14.691Z,97.85
2022-10-20T18:41:44.111Z,98.44
2022-10-20T18:44:15.176Z,98.53
2022-10-20T18:46:43.307Z,99.02
2022-10-20T18:49:14.592Z,99.26
2022-10-20T18:51:42.571Z,99.58
2022-10-20T18:54:10.344Z,100.00
2022-10-20T18:56:38.118Z,99.91
2022-10-20T18:59:09.405Z,99.83
2022-10-20T19:01:39.894Z,100.00
2022-10-20T19:04:10.243Z,100.00
2022-10-20T19:06:43.025Z,100.00
2022-10-20T19:09:17.088Z,100.00
2022-10-20T19:11:45.763Z,100.00
2022-10-20T19:14:14.616Z,100.00
2022-10-20T19:16:44.268Z,100.00
2022-10-20T19:19:12.096Z,100.00
2022-10-20T19:21:40.162Z,100.00
2022-10-20T19:24:16.857Z,100.00
2022-10-20T19:29:46.548Z,100.00
2022-10-20T19:32:14.324Z,100.00
2022-10-20T19:34:42.382Z,100.00
2022-10-20T19:37:10.565Z,100.00
2022-10-20T19:39:41.327Z,100.00
2022-10-20T19:42:10.321Z,100.00
2022-10-20T19:44:38.974Z,100.00
2022-10-20T19:47:07.487Z,100.00
2022-10-20T19:49:36.859Z,100.00
2022-10-20T19:52:05.033Z,100.00
2022-10-20T19:54:32.827Z,100.00
2022-10-20T19:57:00.768Z,100.00
2022-10-20T19:59:28.469Z,100.00
2022-10-20T20:01:56.134Z,100.00
2022-10-20T20:04:24.048Z,100.00
2022-10-20T20:06:52.076Z,100.00
2022-10-20T20:09:19.955Z,100.00
2022-10-20T20:11:47.682Z,100.00
2022-10-20T20:14:18.848Z,100.00
2022-10-20T20:16:47.913Z,100.00
2022-10-20T20:19:17.385Z,100.00
2022-10-20T20:21:45.679Z,100.00
2022-10-20T20:24:14.499Z,100.00
2022-10-20T20:26:42.319Z,100.00
2022-10-20T20:29:11.036Z,100.00
2022-10-20T20:31:38.652Z,100.00
2022-10-20T20:34:06.582Z,100.00
2022-10-20T20:36:35.936Z,100.00
2022-10-20T20:39:03.593Z,100.00
2022-10-20T20:41:32.248Z,100.00
2022-10-20T20:44:04.108Z,100.00
2022-10-20T20:46:34.706Z,100.00
2022-10-20T20:49:03.132Z,100.00
2022-10-20T20:51:34.404Z,100.00
2022-10-20T20:54:03.175Z,100.00
2022-10-20T20:56:30.925Z,100.00
2022-10-20T20:58:58.558Z,100.00
2022-10-20T21:01:28.529Z,100.00
2022-10-20T21:03:58.575Z,100.00
2022-10-20T21:07:00.016Z,100.00
2022-10-20T21:09:15.167Z,100.00
2022-10-20T21:11:44.031Z,100.00
2022-10-20T21:14:11.697Z,100.00
2022-10-20T21:16:39.657Z,100.00
2022-10-20T21:19:10.686Z,100.00
2022-10-20T21:21:51.362Z,100.00
2022-10-20T21:24:19.321Z,100.00
2022-10-20T21:26:47.029Z,100.00
2022-10-20T21:29:14.687Z,100.00
2022-10-20T21:31:42.396Z,100.00
2022-10-20T21:34:11.888Z,100.00
2022-10-20T21:36:41.225Z,100.00
2022-10-20T21:39:12.695Z,100.00
2022-10-20T21:41:41.029Z,100.00
2022-10-20T21:44:09.819Z,100.00
2022-10-20T21:46:48.225Z,100.00
2022-10-20T21:49:19.703Z,100.00
2022-10-20T21:51:51.093Z,100.00
2022-10-20T21:56:55.035Z,100.00
2022-10-20T21:59:25.233Z,100.00
2022-10-20T22:01:55.576Z,100.00
2022-10-20T22:04:26.327Z,100.00
2022-10-20T22:06:54.749Z,100.00
2022-10-20T22:09:23.363Z,100.00
2022-10-20T22:11:53.423Z,100.00
2022-10-20T22:14:21.111Z,100.00
2022-10-20T22:16:48.789Z,100.00
2022-10-20T22:19:22.580Z,100.00
2022-10-20T22:21:51.949Z,100.00
2022-10-20T22:24:21.578Z,100.00
2022-10-20T22:26:50.066Z,100.00
2022-10-20T22:29:17.744Z,100.00
2022-10-20T22:31:45.488Z,100.00
2022-10-20T22:34:13.586Z,100.00
2022-10-20T22:36:41.878Z,100.00
2022-10-20T22:39:09.998Z,100.00
2022-10-20T22:41:37.931Z,100.00
2022-10-20T22:44:07.385Z,100.00
2022-10-20T22:46:35.459Z,100.00
2022-10-20T22:49:03.876Z,100.00
2022-10-20T22:51:31.569Z,100.00
2022-10-20T22:54:00.094Z,100.00
2022-10-20T22:56:27.754Z,100.00
2022-10-20T22:58:56.033Z,100.00
2022-10-20T23:01:24.794Z,100.00
2022-10-20T23:03:52.987Z,100.00
2022-10-20T23:06:24.799Z,100.00
2022-10-20T23:08:55.709Z,100.00
2022-10-20T23:11:23.808Z,100.00
2022-10-20T23:13:52.337Z,100.00
2022-10-20T23:16:20.308Z,100.00
2022-10-20T23:18:48.648Z,100.00
2022-10-20T23:21:16.733Z,100.00
2022-10-20T23:23:45.552Z,100.00
2022-10-20T23:26:13.573Z,100.00
2022-10-20T23:28:41.290Z,100.00
2022-10-20T23:31:11.657Z,100.00
2022-10-20T23:33:40.676Z,100.00
2022-10-20T23:36:08.553Z,100.00
2022-10-20T23:38:36.445Z,100.00
2022-10-20T23:41:04.646Z,100.00
2022-10-20T23:43:32.702Z,100.00
2022-10-20T23:46:00.785Z,100.00
2022-10-20T23:48:28.918Z,100.00
2022-10-20T23:50:56.675Z,100.00
2022-10-20T23:53:25.208Z,100.00
2022-10-20T23:55:53.010Z,100.00
2022-10-20T23:58:24.283Z,100.00
